Lawton, MI (49065)

1:41 PM EDT on September 01, 2015 (GMT -0400)
APRSWXNET | | Change Station
CLOSE
Current Station
Personal Weather Station
Location: Lawton, MI
Elevation: 919 ft
Nearby Weather Stations

Elev 919 ft 42.17 °N, 85.82 °W | Updated 30 minutes ago

Partly Cloudy
Partly Cloudy
86 °F
Feels Like 95 °F
N
6
Wind Variable Wind from SSW
Gusts 15.0 mph

Today
High -- | Low -- °F
--% Chance of Precip.
Yesterday
High -- | Low -- °F
Precip. -- in
7:08 AM 8:17 PM
Waning Gibbous, 87% visible
Pressure 30.07 in
Visibility 10.0 miles
Clouds Few 2900 ft
Scattered Clouds 3400 ft
Mostly Cloudy 4400 ft
Heat Index 95 °F
Dew Point 75 °F
Humidity 70%
Rainfall in
Snow Depth Not available.
UV 5 out of 12
Pollen 10.60 out of 12
Air Quality Not available.
Flu Activity Not available.
METAR KAZO 011653Z 18009KT 10SM FEW029 SCT034 BKN044 29/21 A3008 RMK AO2 SLP181 T02940211
Pressure 30.07 in
Visibility 10.0 miles
Clouds Few 2900 ft
Scattered Clouds 3400 ft
Mostly Cloudy 4400 ft
Heat Index 95 °F
Dew Point 75 °F
Humidity 70%
Rainfall in
Snow Depth Not available.
UV 5 out of 12
Pollen 10.60 out of 12
Air Quality Not available.
Flu Activity Not available.
METAR KAZO 011653Z 18009KT 10SM FEW029 SCT034 BKN044 29/21 A3008 RMK AO2 SLP181 T02940211

10-Day Weather Forecast

×

Almanac

Astronomy

Sep. 01, 2015 Rise Set
Actual Time
Civil Twilight
Nautical Twilight
Astronomical Twilight
Moon
Length of Visible Light
Length of Day
Tomorrow will be .
, % of the Moon is Illuminated

Today's Extremes

State Highs State Lows

Community

WunderPhotos

Upload Photos

1,851,569 photos uploaded!

WunderBlogs® & News

Nearby

Air Quality

  Air Quality AQ Index Pollutant
Not available.

Snow Depth

Station Depth Elevation

Earthquake Activity

City Distance Mag. Time & Date
Minimum magnitude displayed is 2.5.

Coastal Water Temperatures

Place Temperature

Stations

Nearby Weather Stations

Station Location Temp. Windchill Dew Point Humidity Wind Precip. Elev Updated Type